Time;durP1;ratioP1;P1;durP2;ratioP2;P2;SDS_P1;SDS_P2;PMS_P1;PMS_P2;Temp;Humidity;BMP_temperature;BMP_pressure;BME280_temperature;BME280_humidity;BME280_pressure;Samples;Min_cycle;Max_cycle;Signal;HPM_P1;HPM_P2
2021/12/13 00:00:54;;;;;;;12.77;8.43;;;;;;;;;;5002020;28;20334;-80
2021/12/13 00:03:33;;;;;;;12.97;8.07;;;;;;;;;;5002155;28;20694;-80
2021/12/13 00:06:09;;;;;;;13.30;8.37;;;;;;;;;;4986119;28;20231;-81
2021/12/13 00:08:39;;;;;;;14.03;8.10;;;;;;;;;;4985354;28;20282;-79
2021/12/13 00:11:11;;;;;;;14.33;8.53;;;;;;;;;;5012255;28;20758;-79
2021/12/13 00:13:43;;;;;;;12.13;8.03;;;;;;;;;;5005675;28;20676;-79
2021/12/13 00:16:11;;;;;;;13.67;8.57;;;;;;;;;;5007893;28;20290;-78
2021/12/13 00:18:40;;;;;;;15.17;8.43;;;;;;;;;;5018232;28;20322;-79
2021/12/13 00:21:12;;;;;;;14.93;8.90;;;;;;;;;;4989565;28;20215;-81
2021/12/13 00:23:51;;;;;;;12.80;8.90;;;;;;;;;;4998499;28;20318;-81
2021/12/13 00:26:39;;;;;;;17.17;8.87;;;;;;;;;;4985707;28;20287;-81
2021/12/13 00:29:11;;;;;;;12.93;8.43;;;;;;;;;;5001041;28;20649;-81
2021/12/13 00:31:38;;;;;;;14.43;10.40;;;;;;;;;;4991708;28;20386;-81
2021/12/13 00:34:10;;;;;;;17.43;11.70;;;;;;;;;;4998074;28;20216;-80
2021/12/13 00:36:43;;;;;;;13.13;9.77;;;;;;;;;;4988856;28;20676;-80
2021/12/13 00:39:13;;;;;;;15.80;10.93;;;;;;;;;;5005446;28;20665;-77
2021/12/13 00:41:42;;;;;;;19.60;11.80;;;;;;;;;;5001293;28;20294;-79
2021/12/13 00:44:21;;;;;;;17.30;10.97;;;;;;;;;;5000271;28;20380;-79
2021/12/13 00:46:50;;;;;;;21.87;12.03;;;;;;;;;;5000996;28;20227;-80
2021/12/13 00:49:21;;;;;;;22.63;11.13;;;;;;;;;;5009477;28;20254;-80
2021/12/13 00:51:49;;;;;;;20.10;12.47;;;;;;;;;;5001833;28;20288;-79
2021/12/13 00:54:22;;;;;;;22.27;13.20;;;;;;;;;;5000638;28;20239;-79
2021/12/13 00:56:49;;;;;;;25.83;13.87;;;;;;;;;;4990759;28;20195;-79
2021/12/13 00:59:22;;;;;;;27.97;14.10;;;;;;;;;;5004073;28;20780;-79
2021/12/13 01:01:51;;;;;;;20.70;11.13;;;;;;;;;;5004717;28;20238;-79
2021/12/13 01:04:19;;;;;;;18.40;11.20;;;;;;;;;;4999433;28;20223;-80
2021/12/13 01:06:49;;;;;;;18.23;9.67;;;;;;;;;;4984183;28;20235;-80
2021/12/13 01:09:22;;;;;;;14.60;9.07;;;;;;;;;;5002060;28;20653;-78
2021/12/13 01:11:56;;;;;;;14.97;8.63;;;;;;;;;;4993120;28;20206;-80
2021/12/13 01:14:33;;;;;;;16.57;8.20;;;;;;;;;;4994769;28;20257;-78
2021/12/13 01:17:07;;;;;;;12.57;7.63;;;;;;;;;;4998506;28;20299;-81
2021/12/13 01:20:02;;;;;;;12.27;8.27;;;;;;;;;;4987148;28;20212;-81
2021/12/13 01:25:42;;;;;;;12.57;7.50;;;;;;;;;;5010812;28;20215;-79
2021/12/13 01:28:20;;;;;;;14.37;8.87;;;;;;;;;;5002255;28;20323;-79
2021/12/13 01:30:51;;;;;;;17.30;9.20;;;;;;;;;;5003178;28;20242;-81
2021/12/13 01:33:19;;;;;;;13.23;8.40;;;;;;;;;;5006942;28;20286;-80
2021/12/13 01:35:48;;;;;;;14.83;9.10;;;;;;;;;;4994821;28;20212;-79
2021/12/13 01:38:19;;;;;;;13.63;8.80;;;;;;;;;;4982615;28;20322;-81
2021/12/13 01:40:51;;;;;;;15.90;9.13;;;;;;;;;;5007896;28;20238;-81
2021/12/13 01:43:24;;;;;;;14.50;8.73;;;;;;;;;;4991213;28;20253;-81
2021/12/13 01:45:52;;;;;;;14.43;8.43;;;;;;;;;;5000483;28;20213;-81
2021/12/13 01:48:24;;;;;;;14.00;7.90;;;;;;;;;;5005281;28;20274;-81
2021/12/13 01:51:03;;;;;;;11.30;6.87;;;;;;;;;;5005315;28;20299;-79
2021/12/13 01:53:39;;;;;;;14.93;6.70;;;;;;;;;;5008243;28;20305;-81
2021/12/13 01:56:22;;;;;;;11.27;7.27;;;;;;;;;;4984537;28;20208;-82
2021/12/13 01:58:50;;;;;;;11.80;6.73;;;;;;;;;;5004208;28;21927;-79
2021/12/13 02:01:21;;;;;;;9.27;6.60;;;;;;;;;;5000984;28;20951;-78
2021/12/13 02:03:54;;;;;;;18.03;6.93;;;;;;;;;;5000185;28;20762;-79
2021/12/13 02:06:24;;;;;;;13.70;7.67;;;;;;;;;;5005995;28;20722;-79
2021/12/13 02:08:53;;;;;;;14.53;7.40;;;;;;;;;;5007669;28;20315;-81
2021/12/13 02:11:21;;;;;;;16.67;6.80;;;;;;;;;;5007873;28;20261;-81
2021/12/13 02:14:05;;;;;;;16.30;7.20;;;;;;;;;;5008078;28;20295;-80
2021/12/13 02:17:00;;;;;;;10.77;6.77;;;;;;;;;;5007151;28;20302;-79
2021/12/13 02:19:50;;;;;;;13.13;6.70;;;;;;;;;;4992676;28;20640;-79
2021/12/13 02:22:44;;;;;;;11.53;5.83;;;;;;;;;;4999221;28;20298;-80
2021/12/13 02:25:21;;;;;;;14.93;6.03;;;;;;;;;;4979555;28;20247;-81
2021/12/13 02:28:08;;;;;;;11.67;6.03;;;;;;;;;;5009806;28;20219;-80
2021/12/13 02:30:42;;;;;;;11.87;6.30;;;;;;;;;;5010740;28;20742;-79
2021/12/13 02:33:12;;;;;;;10.07;5.67;;;;;;;;;;5004858;28;20567;-81
2021/12/13 02:35:42;;;;;;;16.03;6.53;;;;;;;;;;4999272;28;20231;-80
2021/12/13 02:38:12;;;;;;;11.23;6.33;;;;;;;;;;4987468;28;20626;-80
2021/12/13 02:40:40;;;;;;;14.73;6.60;;;;;;;;;;5005531;28;20877;-77
2021/12/13 02:43:08;;;;;;;11.27;6.27;;;;;;;;;;4983643;28;20207;-78
2021/12/13 02:45:42;;;;;;;14.63;7.53;;;;;;;;;;5009312;28;20231;-80
2021/12/13 02:48:22;;;;;;;13.70;7.33;;;;;;;;;;4999166;28;20260;-79
2021/12/13 02:50:57;;;;;;;19.07;7.77;;;;;;;;;;5009602;28;20260;-80
2021/12/13 02:53:28;;;;;;;14.23;7.77;;;;;;;;;;4994132;28;20199;-80
2021/12/13 02:55:55;;;;;;;17.17;7.33;;;;;;;;;;5002610;28;20211;-79
2021/12/13 02:58:24;;;;;;;17.43;8.50;;;;;;;;;;4983604;28;20236;-80
2021/12/13 03:01:01;;;;;;;20.70;8.57;;;;;;;;;;5004490;28;20508;-80
2021/12/13 03:03:34;;;;;;;23.70;8.00;;;;;;;;;;5001950;28;20207;-82
2021/12/13 03:06:03;;;;;;;26.97;8.83;;;;;;;;;;4989320;28;20635;-81
2021/12/13 03:08:33;;;;;;;29.60;8.33;;;;;;;;;;5005072;28;20311;-79
2021/12/13 03:11:04;;;;;;;29.77;9.67;;;;;;;;;;5010988;28;20243;-80
2021/12/13 03:13:32;;;;;;;20.87;9.23;;;;;;;;;;5006256;28;20619;-80
2021/12/13 03:16:02;;;;;;;32.20;9.57;;;;;;;;;;5010033;28;20199;-81
2021/12/13 03:18:35;;;;;;;32.30;9.33;;;;;;;;;;5009591;28;20233;-81
2021/12/13 03:21:02;;;;;;;38.20;8.97;;;;;;;;;;5006350;28;21106;-80
2021/12/13 03:23:49;;;;;;;38.93;7.37;;;;;;;;;;5012110;28;20219;-79
2021/12/13 03:26:35;;;;;;;33.43;8.43;;;;;;;;;;4994968;28;20227;-79
2021/12/13 03:29:05;;;;;;;21.47;7.47;;;;;;;;;;5009554;28;20322;-79
2021/12/13 03:31:36;;;;;;;24.77;7.67;;;;;;;;;;4996258;28;20202;-80
2021/12/13 03:34:23;;;;;;;29.60;6.90;;;;;;;;;;5002971;28;20293;-79
2021/12/13 03:36:53;;;;;;;12.37;6.57;;;;;;;;;;5009628;28;20250;-80
2021/12/13 03:39:27;;;;;;;22.17;12.77;;;;;;;;;;4984370;28;20262;-78
2021/12/13 03:41:55;;;;;;;16.60;8.87;;;;;;;;;;5010443;28;20261;-79
2021/12/13 03:44:25;;;;;;;23.47;9.67;;;;;;;;;;4990917;28;20390;-79
2021/12/13 03:46:54;;;;;;;10.30;6.07;;;;;;;;;;5008489;28;20263;-81
2021/12/13 03:49:22;;;;;;;11.67;6.00;;;;;;;;;;4991069;28;20223;-78
2021/12/13 03:51:54;;;;;;;13.43;7.27;;;;;;;;;;4985881;28;20287;-78
2021/12/13 03:54:22;;;;;;;9.63;6.47;;;;;;;;;;4989717;28;20235;-81
2021/12/13 03:56:50;;;;;;;14.03;6.93;;;;;;;;;;4989513;28;20318;-78
2021/12/13 03:59:19;;;;;;;20.53;7.57;;;;;;;;;;5003974;28;20254;-78
2021/12/13 04:02:14;;;;;;;14.60;7.60;;;;;;;;;;4986523;28;20263;-81
2021/12/13 04:04:50;;;;;;;16.83;7.33;;;;;;;;;;5003928;28;20746;-81
2021/12/13 04:07:22;;;;;;;16.37;7.60;;;;;;;;;;5006981;28;20211;-79
2021/12/13 04:09:55;;;;;;;15.67;8.50;;;;;;;;;;5008737;28;20238;-79
2021/12/13 04:12:28;;;;;;;20.73;10.07;;;;;;;;;;4997794;28;20199;-79
2021/12/13 04:15:01;;;;;;;16.97;10.13;;;;;;;;;;5000113;28;20254;-78
2021/12/13 04:18:28;;;;;;;17.90;9.33;;;;;;;;;;5003436;28;20290;-79
2021/12/13 04:20:29;;;;;;;13.80;8.73;;;;;;;;;;5000436;28;20302;-80
2021/12/13 04:22:58;;;;;;;24.47;8.53;;;;;;;;;;4989736;28;20600;-79
2021/12/13 04:25:27;;;;;;;14.10;7.40;;;;;;;;;;4986015;28;20346;-78
2021/12/13 04:27:57;;;;;;;12.07;7.00;;;;;;;;;;4984096;28;20295;-80
2021/12/13 04:30:30;;;;;;;23.47;7.13;;;;;;;;;;4984534;28;20334;-79
2021/12/13 04:33:00;;;;;;;11.50;5.90;;;;;;;;;;5008821;28;20207;-80
2021/12/13 04:35:29;;;;;;;58.93;6.67;;;;;;;;;;5010524;28;20235;-80
2021/12/13 04:37:59;;;;;;;46.93;6.37;;;;;;;;;;5009414;28;20239;-81
2021/12/13 04:40:31;;;;;;;31.73;8.57;;;;;;;;;;5005083;28;20675;-77
2021/12/13 04:43:03;;;;;;;41.57;16.33;;;;;;;;;;4995731;28;20302;-79
2021/12/13 04:45:33;;;;;;;36.27;15.50;;;;;;;;;;5001605;28;20232;-80
2021/12/13 04:48:11;;;;;;;57.77;23.30;;;;;;;;;;5006562;28;20310;-79
2021/12/13 04:50:47;;;;;;;72.90;31.90;;;;;;;;;;5000510;28;20227;-79
2021/12/13 04:53:19;;;;;;;34.80;18.80;;;;;;;;;;5006850;28;20235;-80
2021/12/13 04:55:48;;;;;;;25.27;14.17;;;;;;;;;;4988499;28;20239;-78
2021/12/13 04:58:16;;;;;;;28.17;14.73;;;;;;;;;;4997751;28;20671;-80
2021/12/13 05:00:45;;;;;;;37.90;10.90;;;;;;;;;;4986662;28;23672;-78
2021/12/13 05:03:14;;;;;;;22.50;7.37;;;;;;;;;;5000559;28;20510;-83
2021/12/13 05:05:41;;;;;;;33.33;7.53;;;;;;;;;;5007211;28;20350;-79
2021/12/13 05:08:13;;;;;;;26.27;9.60;;;;;;;;;;5008059;28;20229;-80
2021/12/13 05:10:42;;;;;;;20.33;7.13;;;;;;;;;;5004222;28;20231;-82
2021/12/13 05:13:12;;;;;;;13.63;7.10;;;;;;;;;;4987799;28;20332;-80
2021/12/13 05:15:41;;;;;;;14.83;6.77;;;;;;;;;;5007577;28;20277;-80
2021/12/13 05:18:17;;;;;;;22.20;6.90;;;;;;;;;;4998159;28;20255;-78
2021/12/13 05:20:44;;;;;;;25.70;8.43;;;;;;;;;;4997486;28;20717;-83
2021/12/13 05:23:14;;;;;;;13.53;8.63;;;;;;;;;;4987287;28;20487;-81
2021/12/13 05:25:43;;;;;;;22.33;9.60;;;;;;;;;;5005280;28;20742;-80
2021/12/13 05:28:16;;;;;;;15.90;9.87;;;;;;;;;;4990083;28;20223;-79
2021/12/13 05:30:58;;;;;;;21.27;12.73;;;;;;;;;;4994697;28;20714;-80
2021/12/13 05:33:28;;;;;;;20.37;11.97;;;;;;;;;;5003069;28;20207;-81
2021/12/13 05:35:57;;;;;;;16.33;9.97;;;;;;;;;;5005956;28;20218;-80
2021/12/13 05:38:24;;;;;;;15.73;10.73;;;;;;;;;;5007819;28;20266;-78
2021/12/13 05:40:51;;;;;;;16.17;9.97;;;;;;;;;;4991626;28;20247;-80
2021/12/13 05:43:24;;;;;;;12.87;8.43;;;;;;;;;;4992256;28;20258;-79
2021/12/13 05:45:55;;;;;;;15.93;9.83;;;;;;;;;;5002232;28;20222;-80
2021/12/13 05:48:26;;;;;;;19.17;11.37;;;;;;;;;;5007626;28;20318;-80
2021/12/13 05:50:55;;;;;;;19.93;12.60;;;;;;;;;;5014507;28;20230;-79
2021/12/13 05:53:38;;;;;;;14.70;9.63;;;;;;;;;;5002084;28;20208;-81
2021/12/13 05:56:10;;;;;;;16.57;10.43;;;;;;;;;;4993518;28;20614;-80
2021/12/13 05:58:40;;;;;;;15.30;10.93;;;;;;;;;;5009775;28;20264;-81
2021/12/13 06:01:15;;;;;;;16.37;11.70;;;;;;;;;;5013706;28;20214;-81
2021/12/13 06:04:06;;;;;;;13.27;10.10;;;;;;;;;;5006618;28;20369;-82
2021/12/13 06:06:34;;;;;;;10.17;8.70;;;;;;;;;;4972263;28;20619;-82
2021/12/13 06:09:01;;;;;;;10.50;7.30;;;;;;;;;;4991570;28;20266;-82
2021/12/13 06:11:33;;;;;;;9.93;7.30;;;;;;;;;;4999856;28;20242;-81
2021/12/13 06:14:06;;;;;;;10.17;7.10;;;;;;;;;;5010773;28;20305;-81
2021/12/13 06:16:36;;;;;;;11.37;7.17;;;;;;;;;;4988025;28;20303;-79
2021/12/13 06:19:09;;;;;;;12.13;7.43;;;;;;;;;;5003624;28;20630;-82
2021/12/13 06:21:56;;;;;;;12.00;7.33;;;;;;;;;;4987700;28;20266;-80
2021/12/13 06:24:28;;;;;;;12.83;7.67;;;;;;;;;;4994818;28;20699;-82
2021/12/13 06:27:06;;;;;;;13.37;7.47;;;;;;;;;;4997073;28;20252;-82
2021/12/13 06:29:54;;;;;;;14.57;7.73;;;;;;;;;;4988269;28;20204;-79
2021/12/13 06:32:23;;;;;;;15.10;7.90;;;;;;;;;;4991358;28;20238;-84
2021/12/13 06:34:50;;;;;;;15.77;8.17;;;;;;;;;;5003340;28;20299;-81
2021/12/13 06:37:23;;;;;;;18.83;11.20;;;;;;;;;;4986254;28;20298;-81
2021/12/13 06:39:50;;;;;;;18.03;11.47;;;;;;;;;;5004121;28;20395;-81
2021/12/13 06:42:25;;;;;;;17.77;10.80;;;;;;;;;;5012045;28;20203;-83
2021/12/13 06:44:52;;;;;;;15.17;9.50;;;;;;;;;;4995348;28;20309;-78
2021/12/13 06:47:21;;;;;;;14.70;9.20;;;;;;;;;;5007541;28;20227;-81
2021/12/13 06:49:53;;;;;;;14.03;9.10;;;;;;;;;;4989993;28;20295;-80
2021/12/13 06:52:23;;;;;;;13.93;9.03;;;;;;;;;;5009046;28;20204;-81
2021/12/13 06:55:01;;;;;;;24.30;8.97;;;;;;;;;;5011828;28;20215;-82
2021/12/13 06:57:31;;;;;;;16.57;7.73;;;;;;;;;;4994609;28;20318;-82
2021/12/13 07:00:07;;;;;;;14.30;7.87;;;;;;;;;;4994165;28;20345;-83
2021/12/13 07:02:49;;;;;;;17.03;8.07;;;;;;;;;;4996880;28;20234;-83
2021/12/13 07:05:21;;;;;;;14.10;7.80;;;;;;;;;;5003845;28;20729;-82
2021/12/13 07:07:48;;;;;;;14.60;7.70;;;;;;;;;;5012603;28;20719;-82
2021/12/13 07:10:17;;;;;;;13.63;7.73;;;;;;;;;;5002884;28;20211;-81
2021/12/13 07:12:51;;;;;;;15.80;7.33;;;;;;;;;;5009074;28;20292;-80
2021/12/13 07:15:24;;;;;;;21.73;8.27;;;;;;;;;;4992488;28;20207;-81
2021/12/13 07:18:29;;;;;;;20.90;8.10;;;;;;;;;;5007560;28;20262;-81
2021/12/13 07:21:02;;;;;;;12.73;7.10;;;;;;;;;;4957638;28;20254;-80
2021/12/13 07:24:02;;;;;;;67.73;22.40;;;;;;;;;;5012888;28;20702;-83
2021/12/13 07:26:53;;;;;;;60.10;22.50;;;;;;;;;;4951890;28;20718;-83
2021/12/13 07:29:20;;;;;;;66.70;27.37;;;;;;;;;;4998455;28;20232;-82
2021/12/13 07:32:00;;;;;;;60.80;26.37;;;;;;;;;;5005125;28;20718;-83
2021/12/13 07:34:27;;;;;;;50.80;23.80;;;;;;;;;;5014777;28;20349;-83
2021/12/13 07:36:59;;;;;;;30.97;17.33;;;;;;;;;;4996919;28;20208;-81
2021/12/13 07:39:29;;;;;;;37.90;19.23;;;;;;;;;;5013593;28;20686;-81
2021/12/13 07:42:01;;;;;;;33.57;18.13;;;;;;;;;;4993754;28;20374;-83
2021/12/13 07:44:31;;;;;;;25.50;13.90;;;;;;;;;;5009112;28;20299;-83
2021/12/13 07:47:00;;;;;;;28.87;14.57;;;;;;;;;;5005068;28;20235;-82
2021/12/13 07:49:32;;;;;;;25.83;13.20;;;;;;;;;;5003276;28;20270;-79
2021/12/13 07:52:02;;;;;;;17.23;10.27;;;;;;;;;;5011243;28;20224;-80
2021/12/13 07:54:36;;;;;;;23.67;9.17;;;;;;;;;;5003373;28;20303;-81
2021/12/13 07:57:05;;;;;;;33.60;8.73;;;;;;;;;;5012331;28;20212;-80
2021/12/13 07:59:36;;;;;;;94.20;10.47;;;;;;;;;;4992387;28;20671;-80
2021/12/13 08:02:08;;;;;;;47.03;13.70;;;;;;;;;;4997016;28;20289;-83
2021/12/13 08:04:41;;;;;;;29.33;9.00;;;;;;;;;;4999907;28;20929;-82
2021/12/13 08:07:08;;;;;;;24.87;10.97;;;;;;;;;;4988150;28;20754;-82
2021/12/13 08:09:41;;;;;;;13.07;8.53;;;;;;;;;;5007557;28;20295;-81
2021/12/13 08:12:17;;;;;;;13.73;10.07;;;;;;;;;;5012321;28;20206;-81
2021/12/13 08:14:45;;;;;;;11.57;7.20;;;;;;;;;;5002925;28;20719;-81
2021/12/13 08:17:19;;;;;;;11.93;7.47;;;;;;;;;;5007210;28;20195;-81
2021/12/13 08:19:58;;;;;;;18.80;9.20;;;;;;;;;;4995516;28;20694;-79
2021/12/13 08:22:28;;;;;;;24.30;9.10;;;;;;;;;;5011669;28;20231;-82
2021/12/13 08:25:07;;;;;;;26.00;7.07;;;;;;;;;;5007029;28;20266;-82
2021/12/13 08:27:36;;;;;;;28.00;7.13;;;;;;;;;;4996371;28;20326;-79
2021/12/13 08:30:09;;;;;;;11.93;6.50;;;;;;;;;;4996096;28;20287;-81
2021/12/13 08:32:37;;;;;;;18.37;6.67;;;;;;;;;;5001828;28;20299;-79
2021/12/13 08:35:06;;;;;;;10.90;6.73;;;;;;;;;;5013914;28;20231;-83
2021/12/13 08:37:36;;;;;;;12.27;7.27;;;;;;;;;;4995392;28;20333;-83
2021/12/13 08:40:06;;;;;;;16.27;8.60;;;;;;;;;;5004658;28;20242;-82
2021/12/13 08:42:36;;;;;;;18.97;10.00;;;;;;;;;;5011224;28;20200;-83
2021/12/13 08:45:11;;;;;;;13.77;7.70;;;;;;;;;;4987688;28;20712;-82
2021/12/13 08:47:45;;;;;;;13.43;7.33;;;;;;;;;;5004105;28;20309;-81
2021/12/13 08:50:17;;;;;;;13.83;7.97;;;;;;;;;;5003209;28;20286;-80
2021/12/13 08:52:46;;;;;;;16.43;9.87;;;;;;;;;;5006964;28;20261;-81
2021/12/13 08:55:13;;;;;;;16.20;9.13;;;;;;;;;;4998779;28;20697;-77
2021/12/13 08:57:46;;;;;;;15.47;8.37;;;;;;;;;;5009970;28;20310;-79
2021/12/13 09:00:13;;;;;;;13.33;8.33;;;;;;;;;;4987886;28;20298;-81
2021/12/13 09:02:46;;;;;;;13.40;8.73;;;;;;;;;;5010397;28;20242;-82
2021/12/13 09:05:16;;;;;;;24.40;14.00;;;;;;;;;;5009293;28;20223;-81
2021/12/13 09:07:55;;;;;;;18.77;11.20;;;;;;;;;;5009982;28;20243;-81
2021/12/13 09:10:34;;;;;;;18.57;10.10;;;;;;;;;;4984838;28;20208;-82
2021/12/13 09:13:01;;;;;;;21.97;11.80;;;;;;;;;;5003266;28;20286;-81
2021/12/13 09:15:32;;;;;;;20.37;11.23;;;;;;;;;;5008728;28;20679;-81
2021/12/13 09:17:59;;;;;;;19.53;10.90;;;;;;;;;;5007150;28;20345;-81
2021/12/13 09:20:35;;;;;;;15.20;8.40;;;;;;;;;;5007217;28;20250;-82
2021/12/13 09:23:09;;;;;;;14.33;6.97;;;;;;;;;;5013736;28;20209;-80
2021/12/13 09:25:55;;;;;;;8.63;6.03;;;;;;;;;;5010274;28;20317;-85
2021/12/13 09:28:26;;;;;;;10.27;6.90;;;;;;;;;;4990510;28;20246;-81
2021/12/13 09:31:01;;;;;;;17.47;8.73;;;;;;;;;;5006599;28;20286;-80
2021/12/13 09:33:31;;;;;;;15.10;8.77;;;;;;;;;;4999158;28;20299;-78
2021/12/13 09:36:05;;;;;;;11.43;7.80;;;;;;;;;;5009916;28;20364;-82
2021/12/13 09:38:32;;;;;;;11.57;7.87;;;;;;;;;;5012102;28;20318;-81
2021/12/13 09:41:09;;;;;;;12.33;8.10;;;;;;;;;;5007925;28;20216;-80
2021/12/13 09:43:41;;;;;;;11.87;8.07;;;;;;;;;;4992648;28;20231;-82
2021/12/13 09:46:10;;;;;;;11.73;8.70;;;;;;;;;;5008696;28;20492;-81
2021/12/13 09:48:44;;;;;;;10.23;7.53;;;;;;;;;;4986670;28;20230;-80
2021/12/13 09:51:32;;;;;;;12.33;7.47;;;;;;;;;;5014325;28;20235;-80
2021/12/13 09:54:01;;;;;;;11.27;6.87;;;;;;;;;;5001023;28;20758;-79
2021/12/13 09:56:30;;;;;;;8.10;6.07;;;;;;;;;;5001502;28;20655;-80
2021/12/13 09:59:03;;;;;;;6.63;5.13;;;;;;;;;;5004792;28;20310;-81
2021/12/13 10:01:34;;;;;;;6.90;5.03;;;;;;;;;;5012073;28;20274;-80
2021/12/13 10:04:13;;;;;;;5.03;4.30;;;;;;;;;;5004074;28;20682;-82
2021/12/13 10:07:07;;;;;;;5.07;3.87;;;;;;;;;;4989994;28;20259;-82
2021/12/13 10:09:36;;;;;;;5.20;3.40;;;;;;;;;;5006953;28;20294;-80
2021/12/13 10:12:03;;;;;;;3.27;2.97;;;;;;;;;;5002073;28;20298;-81
2021/12/13 10:14:32;;;;;;;2.57;2.37;;;;;;;;;;4993275;28;20227;-80
2021/12/13 10:16:59;;;;;;;3.10;2.80;;;;;;;;;;5009504;28;20219;-79
2021/12/13 10:19:30;;;;;;;2.17;2.03;;;;;;;;;;5011753;28;20219;-80
2021/12/13 10:21:58;;;;;;;1.63;1.53;;;;;;;;;;5000813;28;20330;-80
2021/12/13 10:24:30;;;;;;;2.57;1.13;;;;;;;;;;5000845;28;20269;-81
2021/12/13 10:26:59;;;;;;;1.60;1.50;;;;;;;;;;4994223;28;20295;-79
2021/12/13 10:29:40;;;;;;;1.20;1.20;;;;;;;;;;4993490;28;20547;-81
2021/12/13 10:32:15;;;;;;;3.37;3.07;;;;;;;;;;5011253;28;20208;-83
2021/12/13 10:34:45;;;;;;;5.47;3.60;;;;;;;;;;4997209;28;20647;-82
2021/12/13 10:37:19;;;;;;;2.93;2.63;;;;;;;;;;5015672;28;20230;-81
2021/12/13 10:39:49;;;;;;;3.33;3.03;;;;;;;;;;5009308;28;20298;-80
2021/12/13 10:42:21;;;;;;;3.03;2.70;;;;;;;;;;4993740;28;20206;-84
2021/12/13 10:44:49;;;;;;;2.47;2.27;;;;;;;;;;5014698;28;20300;-80
2021/12/13 10:47:29;;;;;;;2.10;2.00;;;;;;;;;;4992461;28;20259;-79
2021/12/13 10:49:58;;;;;;;3.37;2.17;;;;;;;;;;5018220;28;20219;-80
2021/12/13 10:52:35;;;;;;;2.60;2.03;;;;;;;;;;5014670;28;20204;-81
2021/12/13 10:55:11;;;;;;;2.37;2.17;;;;;;;;;;5012038;28;20290;-82
2021/12/13 10:57:43;;;;;;;2.20;2.00;;;;;;;;;;4992435;28;20757;-83
2021/12/13 11:00:15;;;;;;;1.57;1.47;;;;;;;;;;5015234;28;20307;-81
2021/12/13 11:02:43;;;;;;;2.90;2.60;;;;;;;;;;4997087;28;20235;-83
2021/12/13 11:05:16;;;;;;;2.40;2.20;;;;;;;;;;4994404;28;20214;-81
2021/12/13 11:07:44;;;;;;;3.20;2.50;;;;;;;;;;5014259;28;20703;-82
2021/12/13 11:10:13;;;;;;;3.17;2.53;;;;;;;;;;5011569;28;20271;-83
2021/12/13 11:12:43;;;;;;;2.80;2.60;;;;;;;;;;5000915;28;20262;-81
2021/12/13 11:15:17;;;;;;;3.47;2.60;;;;;;;;;;5010326;28;20211;-82
2021/12/13 11:17:44;;;;;;;5.27;2.60;;;;;;;;;;5013113;28;20277;-82
2021/12/13 11:20:14;;;;;;;3.00;2.30;;;;;;;;;;5014178;28;20302;-83
2021/12/13 11:22:44;;;;;;;3.20;2.90;;;;;;;;;;5009680;28;20210;-81
2021/12/13 11:25:14;;;;;;;3.80;3.43;;;;;;;;;;4991384;28;20665;-81
2021/12/13 11:27:41;;;;;;;3.40;3.10;;;;;;;;;;5011190;28;20403;-83
2021/12/13 11:30:11;;;;;;;2.70;2.50;;;;;;;;;;5006154;28;20520;-84
2021/12/13 11:32:58;;;;;;;3.20;2.90;;;;;;;;;;5014952;28;20195;-82
2021/12/13 11:35:55;;;;;;;3.30;3.00;;;;;;;;;;5006764;28;20724;-81
2021/12/13 11:38:41;;;;;;;3.80;3.20;;;;;;;;;;4985436;28;20253;-83
2021/12/13 11:41:29;;;;;;;3.63;3.00;;;;;;;;;;5016378;28;20237;-81
2021/12/13 11:43:59;;;;;;;4.20;3.13;;;;;;;;;;5010401;28;20204;-81
2021/12/13 11:46:49;;;;;;;5.00;3.40;;;;;;;;;;5010941;28;20791;-81
2021/12/13 11:49:35;;;;;;;4.33;2.97;;;;;;;;;;4999400;28;20230;-81
2021/12/13 11:52:25;;;;;;;6.30;4.43;;;;;;;;;;5012361;28;20242;-82
2021/12/13 11:55:11;;;;;;;11.80;7.13;;;;;;;;;;4998965;28;20290;-79
2021/12/13 11:57:58;;;;;;;13.60;8.17;;;;;;;;;;5011314;28;20277;-83
2021/12/13 12:00:32;;;;;;;17.93;10.60;;;;;;;;;;5003277;28;20738;-81
2021/12/13 12:03:14;;;;;;;14.07;9.37;;;;;;;;;;5010359;28;20208;-83
2021/12/13 12:06:00;;;;;;;15.67;10.83;;;;;;;;;;4989974;28;20366;-84
2021/12/13 12:08:46;;;;;;;15.93;10.40;;;;;;;;;;5006477;28;21076;-82
2021/12/13 12:11:14;;;;;;;9.73;6.60;;;;;;;;;;5013811;28;20651;-82
2021/12/13 12:14:11;;;;;;;9.27;5.67;;;;;;;;;;5008812;28;20235;-82
2021/12/13 12:16:46;;;;;;;6.30;3.87;;;;;;;;;;4997236;28;20213;-83
2021/12/13 12:19:19;;;;;;;5.23;4.00;;;;;;;;;;5009332;28;20334;-82
2021/12/13 12:22:03;;;;;;;6.07;4.50;;;;;;;;;;5009666;28;20207;-83
2021/12/13 12:24:33;;;;;;;7.53;4.87;;;;;;;;;;5007888;28;20310;-83
2021/12/13 12:27:06;;;;;;;8.77;5.30;;;;;;;;;;5006350;28;20219;-82
2021/12/13 12:29:38;;;;;;;5.03;3.60;;;;;;;;;;5013502;28;20647;-81
2021/12/13 12:32:08;;;;;;;5.50;3.53;;;;;;;;;;5014728;28;20222;-83
2021/12/13 12:34:45;;;;;;;7.67;4.87;;;;;;;;;;5005809;28;20204;-81
2021/12/13 12:37:21;;;;;;;9.03;5.80;;;;;;;;;;5007594;28;20204;-82
2021/12/13 12:39:51;;;;;;;12.40;6.70;;;;;;;;;;4987201;28;20235;-82
2021/12/13 12:42:31;;;;;;;12.67;6.60;;;;;;;;;;5003732;28;20234;-80
2021/12/13 12:45:04;;;;;;;12.10;6.90;;;;;;;;;;5006622;28;20242;-81
2021/12/13 12:47:35;;;;;;;10.80;6.63;;;;;;;;;;5005756;28;20678;-83
2021/12/13 12:50:31;;;;;;;10.13;5.80;;;;;;;;;;5000855;28;20713;-81
2021/12/13 12:53:25;;;;;;;10.73;4.90;;;;;;;;;;4987605;28;20238;-83
2021/12/13 12:55:57;;;;;;;9.57;5.23;;;;;;;;;;4982891;28;20291;-80
2021/12/13 12:58:38;;;;;;;9.30;5.50;;;;;;;;;;5002399;28;20322;-80
2021/12/13 13:01:15;;;;;;;9.47;5.87;;;;;;;;;;4984764;28;20290;-83
2021/12/13 13:03:43;;;;;;;10.77;6.07;;;;;;;;;;5009918;28;20725;-82
2021/12/13 13:06:17;;;;;;;9.37;5.23;;;;;;;;;;5005363;28;22661;-80
2021/12/13 13:08:45;;;;;;;9.20;5.47;;;;;;;;;;5007827;28;20310;-82
2021/12/13 13:11:34;;;;;;;11.70;6.57;;;;;;;;;;5009105;28;20625;-80
2021/12/13 13:14:13;;;;;;;13.43;7.00;;;;;;;;;;5003153;28;20231;-84
2021/12/13 13:17:00;;;;;;;11.27;6.73;;;;;;;;;;5003578;28;20251;-82
2021/12/13 13:19:32;;;;;;;9.23;5.73;;;;;;;;;;5006468;28;20250;-81
2021/12/13 13:22:01;;;;;;;9.57;5.60;;;;;;;;;;5001637;28;20350;-84
2021/12/13 13:24:54;;;;;;;12.23;7.17;;;;;;;;;;5006428;28;20238;-84
2021/12/13 13:27:22;;;;;;;16.83;5.00;;;;;;;;;;5007366;28;20228;-82
2021/12/13 13:29:50;;;;;;;7.17;4.70;;;;;;;;;;5009376;28;20234;-85
2021/12/13 13:32:17;;;;;;;7.87;5.10;;;;;;;;;;5009364;28;20235;-82
2021/12/13 13:34:53;;;;;;;7.23;4.77;;;;;;;;;;5002833;28;20238;-84
2021/12/13 13:37:24;;;;;;;12.00;5.50;;;;;;;;;;5002840;28;20234;-83
2021/12/13 13:39:53;;;;;;;11.40;6.60;;;;;;;;;;5006059;28;20211;-81
2021/12/13 13:42:21;;;;;;;35.47;4.87;;;;;;;;;;5004646;28;20236;-82
2021/12/13 13:44:50;;;;;;;32.90;4.63;;;;;;;;;;4982283;28;20248;-82
2021/12/13 13:47:26;;;;;;;3.47;3.00;;;;;;;;;;5002066;28;20671;-81
2021/12/13 13:49:54;;;;;;;5.03;3.47;;;;;;;;;;5016063;28;20321;-82
2021/12/13 13:52:26;;;;;;;9.90;2.80;;;;;;;;;;4989099;28;20266;-83
2021/12/13 13:54:56;;;;;;;4.33;3.47;;;;;;;;;;5012740;28;20245;-82
2021/12/13 13:57:25;;;;;;;40.33;4.17;;;;;;;;;;5011601;28;20250;-82
2021/12/13 13:59:53;;;;;;;8.90;3.00;;;;;;;;;;4992062;28;20687;-81
2021/12/13 14:02:34;;;;;;;3.47;3.10;;;;;;;;;;5011460;28;20207;-83
2021/12/13 14:05:04;;;;;;;4.53;3.37;;;;;;;;;;4996555;28;20210;-85
2021/12/13 14:07:33;;;;;;;3.77;3.30;;;;;;;;;;4998562;28;20266;-82
2021/12/13 14:10:08;;;;;;;4.03;3.43;;;;;;;;;;5014743;28;20226;-85
2021/12/13 14:12:35;;;;;;;7.77;2.93;;;;;;;;;;5016269;28;20567;-82
2021/12/13 14:15:38;;;;;;;12.23;2.50;;;;;;;;;;5008750;28;20265;-82
2021/12/13 14:18:12;;;;;;;3.70;3.17;;;;;;;;;;4913942;29;20258;-80
2021/12/13 14:20:43;;;;;;;2.87;2.50;;;;;;;;;;4981695;28;20247;-83
2021/12/13 14:23:13;;;;;;;2.50;1.77;;;;;;;;;;5014073;28;20239;-83
2021/12/13 14:25:43;;;;;;;9.20;2.07;;;;;;;;;;5013563;28;20282;-83
2021/12/13 14:28:11;;;;;;;1.90;1.80;;;;;;;;;;5012662;28;20327;-83
2021/12/13 14:30:44;;;;;;;7.23;2.20;;;;;;;;;;5010546;28;20208;-82
2021/12/13 14:33:22;;;;;;;6.87;4.03;;;;;;;;;;5007740;28;20242;-82
2021/12/13 14:35:54;;;;;;;4.17;3.40;;;;;;;;;;5007166;28;20238;-83
2021/12/13 14:38:21;;;;;;;9.60;3.50;;;;;;;;;;5007395;28;20259;-81
2021/12/13 14:40:53;;;;;;;8.47;2.90;;;;;;;;;;5006982;28;20258;-82
2021/12/13 14:43:22;;;;;;;21.07;2.90;;;;;;;;;;4996319;28;20302;-82
2021/12/13 14:45:50;;;;;;;6.57;3.40;;;;;;;;;;5008124;28;20204;-83
2021/12/13 14:48:22;;;;;;;4.33;3.90;;;;;;;;;;4992082;28;20227;-81
2021/12/13 14:50:52;;;;;;;5.83;4.40;;;;;;;;;;5004995;28;20243;-82
2021/12/13 14:53:24;;;;;;;19.27;4.80;;;;;;;;;;4992539;28;20227;-82
2021/12/13 14:55:53;;;;;;;10.80;5.30;;;;;;;;;;5006505;28;20223;-81
2021/12/13 14:58:22;;;;;;;14.93;6.50;;;;;;;;;;5009880;28;20261;-82
2021/12/13 15:00:55;;;;;;;8.53;7.30;;;;;;;;;;5000333;28;20199;-82
2021/12/13 15:03:24;;;;;;;6.07;4.13;;;;;;;;;;5006716;28;20227;-84
2021/12/13 15:05:54;;;;;;;19.60;7.40;;;;;;;;;;4991621;28;20646;-83
2021/12/13 15:08:24;;;;;;;6.77;6.10;;;;;;;;;;4993478;28;20324;-81
2021/12/13 15:10:53;;;;;;;3.07;2.87;;;;;;;;;;5014233;28;20231;-82